createdAt,value
2022-10-02T00:01:44.858Z,12.31
2022-10-02T00:04:17.345Z,12.27
2022-10-02T00:06:48.311Z,12.23
2022-10-02T00:09:29.302Z,12.22
2022-10-02T00:11:59.481Z,12.23
2022-10-02T00:14:31.591Z,12.22
2022-10-02T00:17:01.242Z,12.20
2022-10-02T00:19:28.302Z,12.18
2022-10-02T00:22:17.102Z,12.13
2022-10-02T00:24:55.041Z,12.09
2022-10-02T00:27:49.919Z,12.19
2022-10-02T00:30:18.371Z,12.20
2022-10-02T00:32:57.395Z,12.20
2022-10-02T00:35:47.871Z,12.18
2022-10-02T00:38:45.950Z,12.14
2022-10-02T00:41:40.541Z,12.22
2022-10-02T00:44:35.381Z,12.26
2022-10-02T00:47:08.181Z,12.30
2022-10-02T00:49:50.005Z,12.34
2022-10-02T00:52:22.879Z,12.40
2022-10-02T00:55:03.520Z,12.48
2022-10-02T00:57:58.021Z,12.57
2022-10-02T01:00:25.302Z,12.60
2022-10-02T01:03:08.151Z,12.70
2022-10-02T01:05:35.814Z,12.78
2022-10-02T01:08:02.782Z,12.83
2022-10-02T01:10:30.613Z,12.90
2022-10-02T01:12:59.224Z,12.95
2022-10-02T01:15:36.481Z,13.00
2022-10-02T01:18:04.103Z,13.11
2022-10-02T01:20:52.962Z,13.16
2022-10-02T01:23:29.311Z,13.21
2022-10-02T01:25:57.942Z,13.26
2022-10-02T01:28:25.569Z,13.34
2022-10-02T01:30:58.081Z,13.39
2022-10-02T01:33:25.141Z,13.40
2022-10-02T01:35:52.583Z,13.22
2022-10-02T01:38:23.500Z,13.27
2022-10-02T01:40:50.821Z,13.17
2022-10-02T01:43:21.835Z,13.35
2022-10-02T01:45:52.850Z,13.47
2022-10-02T01:48:30.121Z,13.35
2022-10-02T01:51:15.232Z,13.45
2022-10-02T01:53:49.121Z,13.51
2022-10-02T01:56:35.405Z,13.48
2022-10-02T01:59:30.092Z,13.54
2022-10-02T02:02:14.509Z,13.54
2022-10-02T02:04:50.492Z,13.57
2022-10-02T02:07:46.871Z,13.58
2022-10-02T02:10:18.170Z,13.66
2022-10-02T02:13:30.011Z,13.61
2022-10-02T02:16:02.911Z,13.74
2022-10-02T02:18:34.682Z,13.77
2022-10-02T02:21:09.600Z,13.76
2022-10-02T02:23:39.862Z,13.84
2022-10-02T02:26:12.662Z,13.90
2022-10-02T02:28:48.862Z,13.89
2022-10-02T02:31:21.102Z,13.88
2022-10-02T02:34:04.712Z,13.78
2022-10-02T02:36:41.492Z,13.89
2022-10-02T02:39:16.992Z,14.04
2022-10-02T02:42:00.472Z,14.20
2022-10-02T02:44:42.151Z,14.33
2022-10-02T02:47:58.901Z,14.30
2022-10-02T02:50:41.641Z,14.24
2022-10-02T02:53:19.341Z,14.31
2022-10-02T02:56:08.216Z,14.36
2022-10-02T02:58:41.752Z,14.37
2022-10-02T03:01:09.116Z,14.50
2022-10-02T03:03:36.061Z,14.56
2022-10-02T03:06:21.971Z,14.66
2022-10-02T03:08:51.860Z,14.68
2022-10-02T03:11:46.871Z,14.60
2022-10-02T03:14:35.792Z,14.77
2022-10-02T03:17:11.922Z,14.80
2022-10-02T03:19:50.961Z,14.77
2022-10-02T03:22:45.142Z,14.89
2022-10-02T03:25:18.223Z,14.94
2022-10-02T03:27:54.275Z,14.77
2022-10-02T03:30:22.243Z,14.90
2022-10-02T03:32:53.765Z,14.86
2022-10-02T03:35:22.783Z,14.78
2022-10-02T03:37:56.568Z,14.68
2022-10-02T03:40:24.841Z,14.59
2022-10-02T03:42:52.241Z,14.48
2022-10-02T03:45:46.281Z,14.28
2022-10-02T03:48:07.078Z,14.08
2022-10-02T03:50:36.324Z,13.90
2022-10-02T03:53:13.212Z,13.83
2022-10-02T03:55:43.102Z,13.74
2022-10-02T03:58:14.571Z,13.60
2022-10-02T04:01:04.511Z,13.47
2022-10-02T04:03:37.100Z,13.43
2022-10-02T04:06:15.692Z,13.39
2022-10-02T04:08:53.112Z,13.36
2022-10-02T04:11:38.932Z,13.34
2022-10-02T04:14:22.833Z,13.27
2022-10-02T04:17:02.353Z,13.21
2022-10-02T04:19:46.525Z,13.09
2022-10-02T04:22:35.026Z,13.11
2022-10-02T04:25:17.677Z,13.06
2022-10-02T04:27:53.450Z,13.00
2022-10-02T04:30:21.316Z,12.97
2022-10-02T04:32:48.392Z,12.91
2022-10-02T04:35:33.802Z,12.88
2022-10-02T04:38:29.333Z,12.86
2022-10-02T04:41:41.782Z,12.82
2022-10-02T04:44:11.843Z,12.78
2022-10-02T04:47:00.044Z,12.78
2022-10-02T04:50:00.013Z,12.76
2022-10-02T04:52:32.835Z,12.71
2022-10-02T04:55:17.298Z,12.71
2022-10-02T04:57:59.462Z,12.73
2022-10-02T05:00:33.528Z,12.73
2022-10-02T05:03:28.726Z,12.66
2022-10-02T05:05:58.775Z,12.64
2022-10-02T05:08:31.719Z,12.70
2022-10-02T05:11:17.894Z,12.75
2022-10-02T05:13:56.611Z,12.78
2022-10-02T05:16:56.218Z,12.78
2022-10-02T05:19:55.355Z,12.80
2022-10-02T05:22:34.312Z,12.76
2022-10-02T05:25:07.588Z,12.76
2022-10-02T05:27:46.215Z,12.82
2022-10-02T05:30:20.030Z,12.84
2022-10-02T05:33:06.438Z,12.83
2022-10-02T05:35:42.303Z,12.85
2022-10-02T05:38:12.050Z,12.94
2022-10-02T05:40:57.208Z,13.00
2022-10-02T05:43:37.448Z,13.16
2022-10-02T05:46:21.636Z,13.48
2022-10-02T05:48:59.940Z,13.64
2022-10-02T05:51:39.459Z,13.91
2022-10-02T05:54:31.786Z,14.02
2022-10-02T05:57:38.780Z,14.16
2022-10-02T06:00:19.908Z,14.15
2022-10-02T06:02:57.814Z,14.11
2022-10-02T06:05:36.698Z,14.10
2022-10-02T06:08:07.206Z,14.06
2022-10-02T06:10:43.457Z,14.01
2022-10-02T06:13:23.496Z,13.99
2022-10-02T06:16:12.405Z,13.98
2022-10-02T06:18:44.379Z,13.95
2022-10-02T06:21:35.841Z,13.91
2022-10-02T06:24:08.919Z,13.85
2022-10-02T06:26:44.179Z,13.82
2022-10-02T06:29:27.419Z,13.82
2022-10-02T06:32:07.881Z,13.83
2022-10-02T06:34:34.909Z,13.81
2022-10-02T06:37:04.599Z,13.82
2022-10-02T06:40:06.058Z,13.78
2022-10-02T06:42:54.057Z,13.82
2022-10-02T06:45:35.041Z,13.87
2022-10-02T06:48:05.947Z,13.91
2022-10-02T06:50:49.448Z,13.97
2022-10-02T06:53:41.250Z,14.03
2022-10-02T06:56:38.130Z,14.11
2022-10-02T06:59:30.860Z,14.16
2022-10-02T07:02:28.679Z,14.25
2022-10-02T07:05:08.269Z,14.32
2022-10-02T07:07:45.679Z,14.41
2022-10-02T07:10:35.998Z,14.48
2022-10-02T07:13:26.728Z,14.58
2022-10-02T07:16:12.544Z,14.62
2022-10-02T07:18:51.591Z,14.73
2022-10-02T07:21:34.588Z,14.86
2022-10-02T07:24:32.889Z,14.96
2022-10-02T07:27:12.261Z,15.10
2022-10-02T07:30:02.279Z,15.19
2022-10-02T07:32:38.175Z,15.30
2022-10-02T07:36:03.600Z,15.41
2022-10-02T07:38:45.245Z,15.48
2022-10-02T07:41:37.062Z,15.47
2022-10-02T07:44:45.376Z,15.62
2022-10-02T07:47:30.641Z,15.72
2022-10-02T07:50:18.851Z,15.69
2022-10-02T07:53:02.524Z,15.76
2022-10-02T07:55:30.120Z,15.80
2022-10-02T07:58:01.702Z,15.83
2022-10-02T08:00:38.454Z,15.88
2022-10-02T08:03:13.041Z,15.94
2022-10-02T08:05:44.924Z,16.01
2022-10-02T08:08:41.947Z,16.13
2022-10-02T08:11:12.027Z,16.21
2022-10-02T08:14:02.582Z,16.31
2022-10-02T08:16:41.135Z,16.44
2022-10-02T08:19:17.533Z,16.58
2022-10-02T08:21:55.807Z,16.68
2022-10-02T08:24:39.600Z,16.63
2022-10-02T08:27:13.704Z,16.81
2022-10-02T08:29:48.260Z,16.93
2022-10-02T08:32:15.410Z,17.06
2022-10-02T08:34:44.335Z,17.20
2022-10-02T08:37:29.829Z,17.36
2022-10-02T08:40:30.648Z,17.49
2022-10-02T08:43:26.068Z,17.64
2022-10-02T08:46:11.439Z,17.78
2022-10-02T08:48:39.957Z,17.89
2022-10-02T08:51:48.611Z,18.01
2022-10-02T08:54:30.586Z,18.16
2022-10-02T08:57:18.928Z,18.28
2022-10-02T09:00:25.420Z,18.48
2022-10-02T09:03:20.399Z,18.63
2022-10-02T09:05:56.552Z,18.85
2022-10-02T09:08:42.516Z,18.96
2022-10-02T09:11:24.730Z,19.11
2022-10-02T09:14:10.441Z,19.30
2022-10-02T09:16:52.913Z,19.49
2022-10-02T09:19:57.358Z,19.69
2022-10-02T09:22:36.718Z,19.96
2022-10-02T09:25:29.769Z,20.13
2022-10-02T09:28:38.880Z,20.35
2022-10-02T09:31:24.801Z,20.71
2022-10-02T09:34:16.611Z,21.03
2022-10-02T09:37:24.340Z,21.39
2022-10-02T09:40:19.129Z,21.67
2022-10-02T09:43:17.647Z,21.93
2022-10-02T09:46:10.564Z,22.06
2022-10-02T09:48:59.539Z,22.11
2022-10-02T09:51:57.370Z,22.17
2022-10-02T09:54:33.184Z,22.14
2022-10-02T09:57:18.540Z,22.12
2022-10-02T09:59:51.656Z,22.10
2022-10-02T10:02:33.825Z,22.13
2022-10-02T10:05:35.172Z,22.05
2022-10-02T10:08:23.984Z,22.20
2022-10-02T10:11:12.618Z,22.12
2022-10-02T10:14:24.746Z,22.16
2022-10-02T10:17:10.044Z,22.22
2022-10-02T10:20:01.914Z,22.34
2022-10-02T10:22:57.931Z,22.30
2022-10-02T10:25:50.910Z,22.23
2022-10-02T10:28:54.263Z,22.13
2022-10-02T10:31:24.270Z,22.08
2022-10-02T10:34:03.349Z,21.93
2022-10-02T10:37:24.017Z,21.83
2022-10-02T10:40:19.445Z,21.84
2022-10-02T10:43:06.932Z,21.67
2022-10-02T10:45:54.368Z,21.59
2022-10-02T10:48:49.563Z,21.44
2022-10-02T10:51:22.587Z,21.38
2022-10-02T10:54:11.460Z,21.22
2022-10-02T10:56:44.941Z,21.22
2022-10-02T10:59:45.908Z,20.95
2022-10-02T11:13:55.227Z,19.87
2022-10-02T11:16:59.579Z,19.80
2022-10-02T11:19:48.590Z,19.70
2022-10-02T11:22:25.177Z,19.71
2022-10-02T11:25:13.533Z,19.69
2022-10-02T11:28:10.149Z,19.76
2022-10-02T11:30:59.717Z,19.66
2022-10-02T11:33:40.811Z,19.56
2022-10-02T11:36:42.820Z,19.41
2022-10-02T11:39:18.709Z,19.43
2022-10-02T11:41:59.530Z,19.44
2022-10-02T11:44:45.611Z,19.38
2022-10-02T11:47:28.451Z,19.43
2022-10-02T11:50:17.158Z,19.07
2022-10-02T11:53:12.239Z,19.28
2022-10-02T11:56:41.149Z,19.16
2022-10-02T11:59:29.929Z,19.24
2022-10-02T12:02:16.181Z,19.04
2022-10-02T12:04:49.825Z,18.98
2022-10-02T12:07:19.740Z,19.05
2022-10-02T12:09:54.909Z,18.99
2022-10-02T12:12:43.452Z,18.90
2022-10-02T12:15:36.117Z,18.97
2022-10-02T12:18:44.898Z,18.87
2022-10-02T12:21:50.708Z,18.95
2022-10-02T12:24:57.460Z,18.95
2022-10-02T12:27:42.988Z,18.92
2022-10-02T12:30:15.118Z,18.99
2022-10-02T12:33:08.582Z,18.83
2022-10-02T12:36:08.767Z,19.02
2022-10-02T12:39:09.169Z,18.95
2022-10-02T12:41:59.179Z,18.70
2022-10-02T12:44:42.069Z,18.84
2022-10-02T12:47:14.878Z,18.96
2022-10-02T12:50:01.430Z,18.95
2022-10-02T12:52:40.810Z,19.02
2022-10-02T12:55:29.588Z,19.04
2022-10-02T12:58:05.598Z,19.09
2022-10-02T13:01:17.010Z,19.03
2022-10-02T13:04:06.039Z,19.07
2022-10-02T13:07:17.999Z,19.03
2022-10-02T13:10:01.317Z,19.03
2022-10-02T13:12:36.581Z,19.08
2022-10-02T13:15:25.498Z,19.05
2022-10-02T13:18:12.338Z,18.95
2022-10-02T13:20:51.676Z,18.98
2022-10-02T13:23:42.067Z,18.99
2022-10-02T13:26:16.000Z,19.01
2022-10-02T13:29:08.319Z,19.00
2022-10-02T13:31:40.493Z,19.03
2022-10-02T13:34:16.735Z,19.03
2022-10-02T13:37:30.708Z,19.03
2022-10-02T13:40:33.605Z,19.10
2022-10-02T13:43:27.337Z,19.16
2022-10-02T13:46:03.617Z,19.23
2022-10-02T13:48:44.722Z,19.22
2022-10-02T13:51:52.847Z,19.22
2022-10-02T13:54:38.684Z,19.18
2022-10-02T13:57:24.101Z,19.19
2022-10-02T14:00:22.040Z,19.14
2022-10-02T14:03:03.609Z,19.19
2022-10-02T14:05:49.322Z,18.97
2022-10-02T14:08:46.802Z,19.05
2022-10-02T14:11:43.809Z,19.36
2022-10-02T14:14:49.450Z,19.88
2022-10-02T14:17:35.242Z,20.09
2022-10-02T14:20:20.239Z,20.20
2022-10-02T14:23:20.639Z,20.26
2022-10-02T14:25:48.850Z,20.51
2022-10-02T14:28:18.694Z,20.69
2022-10-02T14:31:00.899Z,20.88
2022-10-02T14:33:39.916Z,20.90
2022-10-02T14:36:34.439Z,20.77
2022-10-02T14:39:04.288Z,20.75
2022-10-02T14:42:05.276Z,20.52
2022-10-02T14:44:57.189Z,20.48
2022-10-02T14:47:24.129Z,20.40
2022-10-02T14:50:26.369Z,20.21
2022-10-02T14:53:07.081Z,20.04
2022-10-02T14:55:49.666Z,20.00
2022-10-02T14:58:45.579Z,19.95
2022-10-02T15:01:27.202Z,19.86
2022-10-02T15:04:12.815Z,19.66
2022-10-02T15:06:52.738Z,19.36
2022-10-02T15:09:28.719Z,19.48
2022-10-02T15:12:06.029Z,19.50
2022-10-02T15:14:51.407Z,19.17
2022-10-02T15:17:48.691Z,19.04
2022-10-02T15:20:30.090Z,19.28
2022-10-02T15:23:02.684Z,19.24
2022-10-02T15:25:51.585Z,19.22
2022-10-02T15:28:56.436Z,19.16
2022-10-02T15:31:26.119Z,19.12
2022-10-02T15:34:22.999Z,18.99
2022-10-02T15:37:10.411Z,18.99
2022-10-02T15:39:40.762Z,18.94
2022-10-02T15:42:09.748Z,18.89
2022-10-02T15:44:59.190Z,18.80
2022-10-02T15:47:36.078Z,18.76
2022-10-02T15:50:18.449Z,18.69
2022-10-02T15:53:05.819Z,18.60
2022-10-02T15:55:44.751Z,18.55
2022-10-02T15:58:21.878Z,18.47
2022-10-02T16:01:01.214Z,18.40
2022-10-02T16:03:36.579Z,18.34
2022-10-02T16:06:21.298Z,18.24
2022-10-02T16:09:15.806Z,18.18
2022-10-02T16:12:21.989Z,18.12
2022-10-02T16:15:08.138Z,18.03
2022-10-02T16:17:54.088Z,17.95
2022-10-02T16:20:32.398Z,17.90
2022-10-02T16:23:17.529Z,17.83
2022-10-02T16:26:06.045Z,17.73
2022-10-02T16:28:44.819Z,17.66
2022-10-02T16:31:25.740Z,17.59
2022-10-02T16:34:11.799Z,17.46
2022-10-02T16:37:05.629Z,17.35
2022-10-02T16:40:08.215Z,17.22
2022-10-02T16:42:42.780Z,17.15
2022-10-02T16:45:30.831Z,17.06
2022-10-02T16:48:54.718Z,16.93
2022-10-02T16:51:51.199Z,16.86
2022-10-02T16:54:43.709Z,16.83
2022-10-02T16:57:35.121Z,16.79
2022-10-02T17:00:09.079Z,16.73
2022-10-02T17:02:54.515Z,16.70
2022-10-02T17:05:31.499Z,16.68
2022-10-02T17:07:59.721Z,16.62
2022-10-02T17:10:29.817Z,16.60
2022-10-02T17:13:07.570Z,16.54
2022-10-02T17:15:50.026Z,16.52
2022-10-02T17:18:24.593Z,16.47
2022-10-02T17:21:08.169Z,16.43
2022-10-02T17:23:47.635Z,16.36
2022-10-02T17:26:23.097Z,16.33
2022-10-02T17:29:07.069Z,16.32
2022-10-02T17:31:36.862Z,16.22
2022-10-02T17:34:52.999Z,16.20
2022-10-02T17:37:39.059Z,16.15
2022-10-02T17:40:13.965Z,16.13
2022-10-02T17:43:04.068Z,16.09
2022-10-02T17:45:50.328Z,16.09
2022-10-02T17:48:33.550Z,16.07
2022-10-02T17:51:00.619Z,16.04
2022-10-02T17:54:24.765Z,16.03
2022-10-02T17:57:06.575Z,15.99
2022-10-02T17:59:48.617Z,15.99
2022-10-02T18:02:28.198Z,15.97
2022-10-02T18:05:26.974Z,15.81
2022-10-02T18:08:15.428Z,15.85
2022-10-02T18:11:09.067Z,15.82
2022-10-02T18:13:59.285Z,15.81
2022-10-02T18:17:21.327Z,15.76
2022-10-02T18:20:17.359Z,15.74
2022-10-02T18:23:02.259Z,15.75
2022-10-02T18:25:55.048Z,15.72
2022-10-02T18:28:34.013Z,15.74
2022-10-02T18:31:38.518Z,15.75
2022-10-02T18:34:26.935Z,15.74
2022-10-02T18:37:09.766Z,15.75
2022-10-02T18:40:04.815Z,15.72
2022-10-02T18:42:47.268Z,15.73
2022-10-02T18:45:25.396Z,15.73
2022-10-02T18:48:04.569Z,15.65
2022-10-02T18:51:01.029Z,15.65
2022-10-02T18:53:34.300Z,15.63
2022-10-02T18:56:13.950Z,15.63
2022-10-02T18:58:44.975Z,15.61
2022-10-02T19:01:19.779Z,15.58
2022-10-02T19:04:17.562Z,15.56
2022-10-02T19:07:06.814Z,15.56
2022-10-02T19:09:34.147Z,15.54
2022-10-02T19:12:14.749Z,15.51
2022-10-02T19:14:46.658Z,15.51
2022-10-02T19:17:15.822Z,15.50
2022-10-02T19:19:43.740Z,15.47
2022-10-02T19:22:19.133Z,15.42
2022-10-02T19:24:49.807Z,15.35
2022-10-02T19:27:33.020Z,15.32
2022-10-02T19:30:04.067Z,15.27
2022-10-02T19:32:35.704Z,15.20
2022-10-02T19:35:08.507Z,15.19
2022-10-02T19:37:41.828Z,15.14
2022-10-02T19:40:32.008Z,15.11
2022-10-02T19:43:14.618Z,15.07
2022-10-02T19:45:48.477Z,14.99
2022-10-02T19:48:19.009Z,14.98
2022-10-02T19:50:53.868Z,14.93
2022-10-02T19:53:27.038Z,14.91
2022-10-02T19:55:57.312Z,14.88
2022-10-02T19:58:34.216Z,14.88
2022-10-02T20:01:01.903Z,14.89
2022-10-02T20:03:30.384Z,14.90
2022-10-02T20:06:05.320Z,14.90
2022-10-02T20:08:43.496Z,14.88
2022-10-02T20:11:45.596Z,14.91
2022-10-02T20:14:18.637Z,14.90
2022-10-02T20:17:04.387Z,14.87
2022-10-02T20:19:36.170Z,14.90
2022-10-02T20:22:16.387Z,14.87
2022-10-02T20:24:51.800Z,14.79
2022-10-02T20:27:27.818Z,14.85
2022-10-02T20:30:01.118Z,14.86
2022-10-02T20:32:35.170Z,14.87
2022-10-02T20:35:18.803Z,14.86
2022-10-02T20:37:49.630Z,14.87
2022-10-02T20:40:25.454Z,14.82
2022-10-02T20:43:22.198Z,14.79
2022-10-02T20:46:11.900Z,14.77
2022-10-02T20:49:08.369Z,14.72
2022-10-02T20:52:19.669Z,14.71
2022-10-02T20:54:49.606Z,14.64
2022-10-02T20:57:16.482Z,14.61
2022-10-02T20:59:48.182Z,14.53
2022-10-02T21:02:33.261Z,14.56
2022-10-02T21:05:25.378Z,14.55
2022-10-02T21:08:28.539Z,14.54
2022-10-02T21:10:55.490Z,14.54
2022-10-02T21:13:24.441Z,14.53
2022-10-02T21:16:10.869Z,14.52
2022-10-02T21:19:13.482Z,14.51
2022-10-02T21:22:08.538Z,14.53
2022-10-02T21:24:53.928Z,14.52
2022-10-02T21:27:20.896Z,14.49
2022-10-02T21:30:28.181Z,14.43
2022-10-02T21:33:10.179Z,14.43
2022-10-02T21:35:57.480Z,14.41
2022-10-02T21:38:55.508Z,14.36
2022-10-02T21:41:55.139Z,14.31
2022-10-02T21:44:52.218Z,14.27
2022-10-02T21:47:40.888Z,14.23
2022-10-02T21:50:10.937Z,14.17
2022-10-02T21:52:50.408Z,14.13
2022-10-02T21:55:39.773Z,14.09
2022-10-02T21:58:37.668Z,14.03
2022-10-02T22:01:42.678Z,13.96
2022-10-02T22:04:49.039Z,13.89
2022-10-02T22:07:43.237Z,13.85
2022-10-02T22:10:35.879Z,13.79
2022-10-02T22:13:37.174Z,13.77
2022-10-02T22:16:26.354Z,13.71
2022-10-02T22:19:11.219Z,13.71
2022-10-02T22:21:56.361Z,13.70
2022-10-02T22:24:26.209Z,13.66
2022-10-02T22:27:18.738Z,13.64
2022-10-02T22:29:51.907Z,13.61
2022-10-02T22:32:46.520Z,13.59
2022-10-02T22:35:21.209Z,13.56
2022-10-02T22:38:10.148Z,13.51
2022-10-02T22:40:49.008Z,13.46
2022-10-02T22:43:50.239Z,13.43
2022-10-02T22:46:42.230Z,13.41
2022-10-02T22:49:36.398Z,13.31
2022-10-02T22:52:31.839Z,13.32
2022-10-02T22:55:21.429Z,13.29
2022-10-02T22:58:00.521Z,13.31
2022-10-02T23:00:53.478Z,13.32
2022-10-02T23:03:40.387Z,13.32
2022-10-02T23:06:13.227Z,13.31
2022-10-02T23:08:55.502Z,13.31
2022-10-02T23:11:29.123Z,13.27
2022-10-02T23:14:03.182Z,13.19
2022-10-02T23:16:54.161Z,13.21
2022-10-02T23:19:41.321Z,13.17
2022-10-02T23:22:40.153Z,13.17
2022-10-02T23:25:34.302Z,13.20
2022-10-02T23:28:10.358Z,13.20
2022-10-02T23:30:46.340Z,13.24
2022-10-02T23:33:16.390Z,13.28
2022-10-02T23:35:54.452Z,13.32
2022-10-02T23:38:23.502Z,13.35
2022-10-02T23:41:28.542Z,13.29
2022-10-02T23:44:29.160Z,13.33
2022-10-02T23:46:56.112Z,13.36
2022-10-02T23:49:35.538Z,13.40
2022-10-02T23:52:31.722Z,13.41
2022-10-02T23:55:20.356Z,13.40
2022-10-02T23:58:16.419Z,13.45
